»·PEaware :: AAL417 KSAN-KPHX

AAL417 :: KSAN-KPHX

FLIGHT INFORMATION

Flight Status: Arrived
Operator:
American Airlines
More flights by this operator :: More flights under this callsign
Pilot: Andrew C. (32327)
Aircraft: AIRBUS A321
(A321)
More flights by this aircraft type
Origin: KSAN San Diego Intl-Lindbergh
United States
Destination: KPHX Phoenix Sky Harbor Intl
United States
More flights between these airports :: More routes between these airports
Route: +ZZOOO2 IPL J18 BZA HOGGZ HYDRR1
File this flight plan on PilotEdge
Remarks:
Altitude:
(Current/Filed)
29,000ft
Speed:
(Current/Filed)
450kts
Departed: 08-Nov-20 03:26 PM
Arrived: 08-Nov-20 04:16 PM
Distance/Time
Traveled:
264nm/0:50
Distance/Time
To Go:
Arrived

Flight Plot

Page will automatically refresh every two minutes.

Flight plan parsing failed; only flown route is shown


Map Options




Map Legend


Flown Route
Filed Route
Departure Airport
Arrival Airport
Navaid (VOR, NDB)
Fix

Horizontal Profiles

Position Reports

Time Latitude Longitude Heading Altitude Ground
Speed
08-Nov-20 14:59 32.732881 -117.201654 86 19ft 0kts
08-Nov-20 15:01 32.732881 -117.201655 86 19ft 0kts
08-Nov-20 15:02 32.732881 -117.201655 86 19ft 0kts
08-Nov-20 15:02 32.732881 -117.201655 86 19ft 0kts
08-Nov-20 15:03 32.732881 -117.201655 86 19ft 0kts
08-Nov-20 15:04 32.732881 -117.201655 86 19ft 0kts
08-Nov-20 15:05 32.732881 -117.201655 86 19ft 0kts
08-Nov-20 15:06 32.732881 -117.201655 86 19ft 0kts
08-Nov-20 15:07 32.732881 -117.201655 86 19ft 0kts
08-Nov-20 15:08 32.732881 -117.201655 86 19ft 0kts
08-Nov-20 15:09 32.732881 -117.201655 86 19ft 0kts
08-Nov-20 15:10 32.732881 -117.201655 86 19ft 0kts
08-Nov-20 15:11 32.732889 -117.201661 92 19ft 1kts
08-Nov-20 15:12 32.733155 -117.202169 138 19ft 2kts
08-Nov-20 15:13 32.733185 -117.202718 52 19ft 0kts
08-Nov-20 15:14 32.733185 -117.202718 52 19ft 0kts
08-Nov-20 15:15 32.733185 -117.202718 52 19ft 0kts
08-Nov-20 15:16 32.733431 -117.202730 350 19ft 3kts
08-Nov-20 15:17 32.734497 -117.202579 16 19ft 13kts
08-Nov-20 15:18 32.734609 -117.198228 106 19ft 17kts
08-Nov-20 15:19 32.733259 -117.192676 106 22ft 17kts
08-Nov-20 15:20 32.731763 -117.186590 106 19ft 20kts
08-Nov-20 15:21 32.730207 -117.180133 106 19ft 20kts
08-Nov-20 15:22 32.729504 -117.177219 105 23ft 0kts
08-Nov-20 15:23 32.729491 -117.176928 81 23ft 5kts
08-Nov-20 15:24 32.730325 -117.176420 285 25ft 0kts
08-Nov-20 15:25 32.737315 -117.205053 285 695ft 157kts
08-Nov-20 15:26 32.750156 -117.259195 284 2587ft 195kts
08-Nov-20 15:27 32.733332 -117.322297 200 4492ft 259kts
08-Nov-20 15:28 32.668033 -117.281629 144 7373ft 292kts
08-Nov-20 15:29 32.625993 -117.199822 95 9964ft 317kts
08-Nov-20 15:30 32.617193 -117.086599 96 11213ft 377kts
08-Nov-20 15:31 32.605198 -116.952308 94 12291ft 438kts
08-Nov-20 15:32 32.622952 -116.806973 72 14439ft 457kts
08-Nov-20 15:33 32.642284 -116.655306 82 16629ft 475kts
08-Nov-20 15:34 32.657314 -116.496958 81 18674ft 490kts
08-Nov-20 15:35 32.672815 -116.334768 82 20610ft 502kts
08-Nov-20 15:36 32.688511 -116.167742 82 22228ft 516kts
08-Nov-20 15:37 32.704431 -115.996634 82 23751ft 526kts
08-Nov-20 15:38 32.720542 -115.822599 83 25097ft 537kts
08-Nov-20 15:39 32.736606 -115.644904 83 26356ft 546kts
08-Nov-20 15:40 32.750260 -115.464007 88 27559ft 553kts
08-Nov-20 15:41 32.754339 -115.280363 89 28700ft 558kts
08-Nov-20 15:42 32.758221 -115.102205 89 28951ft 508kts
08-Nov-20 15:43 32.761514 -114.944577 90 28968ft 447kts
08-Nov-20 15:44 32.764344 -114.797472 90 28983ft 449kts
08-Nov-20 15:45 32.767146 -114.643810 90 28983ft 483kts
08-Nov-20 15:46 32.769663 -114.478802 91 28933ft 515kts
08-Nov-20 15:47 32.771916 -114.309259 91 28032ft 508kts
08-Nov-20 15:48 32.773842 -114.143022 92 27124ft 500kts
08-Nov-20 15:49 32.784092 -113.979007 84 26204ft 496kts
08-Nov-20 15:50 32.802443 -113.816301 84 25419ft 491kts
08-Nov-20 15:51 32.834523 -113.661333 50 24810ft 485kts
08-Nov-20 15:52 32.923333 -113.544003 42 23821ft 474kts
08-Nov-20 15:53 33.010197 -113.427416 43 22774ft 468kts
08-Nov-20 15:54 33.094836 -113.312819 44 21889ft 462kts
08-Nov-20 15:55 33.178073 -113.200257 44 20295ft 434kts
08-Nov-20 15:56 33.256070 -113.094282 46 18877ft 418kts
08-Nov-20 15:57 33.278063 -112.963245 94 17690ft 412kts
08-Nov-20 15:58 33.280321 -112.827335 90 16555ft 385kts
08-Nov-20 15:59 33.291761 -112.700677 86 15290ft 371kts
08-Nov-20 16:00 33.303081 -112.580311 86 13946ft 359kts
08-Nov-20 16:01 33.313813 -112.463757 87 12663ft 346kts
08-Nov-20 16:02 33.324161 -112.350523 86 11388ft 332kts
08-Nov-20 16:03 33.333926 -112.243665 87 10183ft 313kts
08-Nov-20 16:04 33.343031 -112.142607 87 9002ft 294kts
08-Nov-20 16:05 33.347175 -112.055956 95 8959ft 247kts
08-Nov-20 16:06 33.345939 -111.972300 94 7597ft 251kts
08-Nov-20 16:07 33.346014 -111.890581 92 6987ft 239kts
08-Nov-20 16:08 33.347079 -111.810801 92 6984ft 239kts
08-Nov-20 16:09 33.370451 -111.740002 17 6761ft 259kts
08-Nov-20 16:10 33.436058 -111.750016 320 5397ft 231kts
08-Nov-20 16:11 33.442312 -111.813588 270 4683ft 206kts
08-Nov-20 16:12 33.443734 -111.870471 258 3575ft 160kts
08-Nov-20 16:13 33.440844 -111.924875 265 2461ft 162kts
08-Nov-20 16:14 33.440898 -111.978711 266 1435ft 160kts
08-Nov-20 16:15 33.440509 -112.016733 232 1124ft 16kts
08-Nov-20 16:16 33.440335 -112.016974 227 1124ft 0kts
08-Nov-20 16:17 33.439822 -112.016472 100 1124ft 11kts
08-Nov-20 16:18 33.439761 -112.011197 90 1128ft 16kts
08-Nov-20 16:19 33.439752 -112.005548 92 1131ft 16kts
08-Nov-20 16:20 33.439030 -112.000086 90 1132ft 16kts
08-Nov-20 16:21 33.438545 -111.998387 210 1134ft 3kts
08-Nov-20 16:22 33.438259 -111.998809 233 1133ft 0kts

Navigation Log

Ident Type
Flight plan parsing failed, navigation log unavailable